sensor_id;sensor_type;location;lat;lon;timestamp;pressure;altitude;pressure_sealevel;temperature;humidity
73501;BME280;61721;42.206;25.320;2024-03-02T00:00:51;99218.19;;;8.31;82.41
73501;BME280;61721;42.206;25.320;2024-03-02T00:03:20;99211.72;;;8.32;81.61
73501;BME280;61721;42.206;25.320;2024-03-02T00:05:51;99204.03;;;8.16;82.10
73501;BME280;61721;42.206;25.320;2024-03-02T00:08:23;99203.69;;;8.64;81.20
73501;BME280;61721;42.206;25.320;2024-03-02T00:10:51;99201.69;;;8.39;81.11
73501;BME280;61721;42.206;25.320;2024-03-02T00:13:20;99202.47;;;8.46;80.94
73501;BME280;61721;42.206;25.320;2024-03-02T00:15:54;99185.00;;;8.29;81.80
73501;BME280;61721;42.206;25.320;2024-03-02T00:18:25;99181.28;;;8.24;81.29
73501;BME280;61721;42.206;25.320;2024-03-02T00:20:54;99187.09;;;8.40;82.31
73501;BME280;61721;42.206;25.320;2024-03-02T00:23:23;99182.41;;;8.61;80.79
73501;BME280;61721;42.206;25.320;2024-03-02T00:25:51;99183.72;;;8.51;80.94
73501;BME280;61721;42.206;25.320;2024-03-02T00:28:21;99185.38;;;8.52;81.03
73501;BME280;61721;42.206;25.320;2024-03-02T00:30:57;99189.69;;;8.67;80.16
73501;BME280;61721;42.206;25.320;2024-03-02T00:33:27;99186.22;;;8.46;79.90
73501;BME280;61721;42.206;25.320;2024-03-02T00:35:57;99180.22;;;8.31;81.04
73501;BME280;61721;42.206;25.320;2024-03-02T00:38:25;99177.53;;;8.25;81.81
73501;BME280;61721;42.206;25.320;2024-03-02T00:40:53;99175.81;;;8.30;81.30
73501;BME280;61721;42.206;25.320;2024-03-02T00:43:41;99171.03;;;8.45;81.03
73501;BME280;61721;42.206;25.320;2024-03-02T00:46:12;99165.16;;;8.48;80.64
73501;BME280;61721;42.206;25.320;2024-03-02T00:48:39;99159.94;;;8.53;80.26
73501;BME280;61721;42.206;25.320;2024-03-02T00:51:13;99164.59;;;8.33;80.93
73501;BME280;61721;42.206;25.320;2024-03-02T00:53:40;99167.03;;;8.54;80.43
73501;BME280;61721;42.206;25.320;2024-03-02T00:56:09;99164.59;;;8.33;80.25
73501;BME280;61721;42.206;25.320;2024-03-02T00:58:44;99150.97;;;8.53;79.68
73501;BME280;61721;42.206;25.320;2024-03-02T01:01:13;99154.56;;;8.27;81.20
73501;BME280;61721;42.206;25.320;2024-03-02T01:03:42;99156.63;;;8.38;80.70
73501;BME280;61721;42.206;25.320;2024-03-02T01:06:09;99155.41;;;8.34;81.01
73501;BME280;61721;42.206;25.320;2024-03-02T01:08:37;99151.84;;;8.40;81.49
73501;BME280;61721;42.206;25.320;2024-03-02T01:11:04;99143.03;;;8.51;80.20
73501;BME280;61721;42.206;25.320;2024-03-02T01:13:32;99146.03;;;8.75;79.65
73501;BME280;61721;42.206;25.320;2024-03-02T01:16:00;99157.69;;;8.37;80.42
73501;BME280;61721;42.206;25.320;2024-03-02T01:18:29;99165.63;;;8.26;81.50
73501;BME280;61721;42.206;25.320;2024-03-02T01:20:57;99166.25;;;8.21;81.64
73501;BME280;61721;42.206;25.320;2024-03-02T01:23:25;99166.25;;;8.21;81.63
73501;BME280;61721;42.206;25.320;2024-03-02T01:25:52;99161.25;;;8.18;81.89
73501;BME280;61721;42.206;25.320;2024-03-02T01:28:20;99158.72;;;8.36;81.50
73501;BME280;61721;42.206;25.320;2024-03-02T01:30:48;99150.41;;;8.31;81.94
73501;BME280;61721;42.206;25.320;2024-03-02T01:33:16;99146.19;;;8.48;81.10
73501;BME280;61721;42.206;25.320;2024-03-02T01:35:45;99148.94;;;8.29;81.09
73501;BME280;61721;42.206;25.320;2024-03-02T01:38:13;99141.66;;;8.23;81.41
73501;BME280;61721;42.206;25.320;2024-03-02T01:40:40;99148.50;;;8.38;81.91
73501;BME280;61721;42.206;25.320;2024-03-02T01:43:10;99157.47;;;8.45;80.69
73501;BME280;61721;42.206;25.320;2024-03-02T01:45:37;99142.84;;;8.53;80.87
73501;BME280;61721;42.206;25.320;2024-03-02T01:48:06;99144.34;;;8.29;81.11
73501;BME280;61721;42.206;25.320;2024-03-02T01:50:34;99141.69;;;8.16;81.62
73501;BME280;61721;42.206;25.320;2024-03-02T01:53:03;99152.91;;;8.19;82.20
73501;BME280;61721;42.206;25.320;2024-03-02T01:55:32;99143.78;;;8.14;81.82
73501;BME280;61721;42.206;25.320;2024-03-02T01:58:01;99147.28;;;8.21;81.67
73501;BME280;61721;42.206;25.320;2024-03-02T02:00:28;99139.00;;;8.16;81.94
73501;BME280;61721;42.206;25.320;2024-03-02T02:02:56;99143.31;;;8.30;81.17
73501;BME280;61721;42.206;25.320;2024-03-02T02:05:23;99139.75;;;8.36;81.03
73501;BME280;61721;42.206;25.320;2024-03-02T02:07:50;99139.16;;;8.21;81.68
73501;BME280;61721;42.206;25.320;2024-03-02T02:10:19;99133.75;;;8.34;81.69
73501;BME280;61721;42.206;25.320;2024-03-02T02:12:47;99135.38;;;8.29;81.14
73501;BME280;61721;42.206;25.320;2024-03-02T02:15:25;99138.38;;;8.14;82.11
73501;BME280;61721;42.206;25.320;2024-03-02T02:17:52;99136.88;;;8.18;81.94
73501;BME280;61721;42.206;25.320;2024-03-02T02:20:20;99134.66;;;7.95;82.82
73501;BME280;61721;42.206;25.320;2024-03-02T02:22:56;99134.84;;;8.00;82.56
73501;BME280;61721;42.206;25.320;2024-03-02T02:25:24;99141.00;;;8.27;81.89
73501;BME280;61721;42.206;25.320;2024-03-02T02:27:52;99122.91;;;8.34;81.77
73501;BME280;61721;42.206;25.320;2024-03-02T02:30:21;99126.53;;;8.60;80.69
73501;BME280;61721;42.206;25.320;2024-03-02T02:32:49;99122.81;;;8.47;80.85
73501;BME280;61721;42.206;25.320;2024-03-02T02:35:17;99124.16;;;8.25;81.94
73501;BME280;61721;42.206;25.320;2024-03-02T02:37:45;99122.44;;;8.31;81.92
73501;BME280;61721;42.206;25.320;2024-03-02T02:40:15;99129.56;;;8.25;82.16
73501;BME280;61721;42.206;25.320;2024-03-02T02:42:42;99126.09;;;8.63;81.13
73501;BME280;61721;42.206;25.320;2024-03-02T02:45:09;99124.47;;;8.48;80.45
73501;BME280;61721;42.206;25.320;2024-03-02T02:47:40;99119.13;;;8.29;80.96
73501;BME280;61721;42.206;25.320;2024-03-02T02:50:08;99108.69;;;8.39;80.50
73501;BME280;61721;42.206;25.320;2024-03-02T02:52:36;99110.19;;;8.35;80.54
73501;BME280;61721;42.206;25.320;2024-03-02T02:55:06;99119.06;;;8.48;79.74
73501;BME280;61721;42.206;25.320;2024-03-02T02:57:36;99121.63;;;8.30;80.33
73501;BME280;61721;42.206;25.320;2024-03-02T03:00:06;99109.97;;;8.23;80.78
73501;BME280;61721;42.206;25.320;2024-03-02T03:02:37;99119.38;;;8.20;80.88
73501;BME280;61721;42.206;25.320;2024-03-02T03:05:12;99108.81;;;8.06;81.70
73501;BME280;61721;42.206;25.320;2024-03-02T03:07:40;99113.34;;;8.12;81.96
73501;BME280;61721;42.206;25.320;2024-03-02T03:10:08;99104.72;;;8.28;81.09
73501;BME280;61721;42.206;25.320;2024-03-02T03:12:37;99108.38;;;8.02;81.00
73501;BME280;61721;42.206;25.320;2024-03-02T03:15:07;99113.84;;;7.96;82.33
73501;BME280;61721;42.206;25.320;2024-03-02T03:17:35;99114.59;;;8.09;81.94
73501;BME280;61721;42.206;25.320;2024-03-02T03:20:04;99112.97;;;8.02;81.61
73501;BME280;61721;42.206;25.320;2024-03-02T03:22:35;99131.34;;;7.87;82.30
73501;BME280;61721;42.206;25.320;2024-03-02T03:25:03;99135.53;;;7.82;82.64
73501;BME280;61721;42.206;25.320;2024-03-02T03:27:30;99133.38;;;7.98;82.62
73501;BME280;61721;42.206;25.320;2024-03-02T03:30:00;99128.75;;;8.18;82.29
73501;BME280;61721;42.206;25.320;2024-03-02T03:32:27;99115.38;;;8.30;80.75
73501;BME280;61721;42.206;25.320;2024-03-02T03:34:55;99113.19;;;8.07;81.63
73501;BME280;61721;42.206;25.320;2024-03-02T03:37:22;99108.59;;;8.01;81.72
73501;BME280;61721;42.206;25.320;2024-03-02T03:39:51;99122.56;;;8.04;81.74
73501;BME280;61721;42.206;25.320;2024-03-02T03:42:19;99116.34;;;7.97;82.21
73501;BME280;61721;42.206;25.320;2024-03-02T03:44:46;99117.50;;;8.21;81.13
73501;BME280;61721;42.206;25.320;2024-03-02T03:47:15;99111.19;;;8.27;81.27
73501;BME280;61721;42.206;25.320;2024-03-02T03:49:42;99118.94;;;8.24;81.41
73501;BME280;61721;42.206;25.320;2024-03-02T03:52:09;99123.31;;;8.18;80.94
73501;BME280;61721;42.206;25.320;2024-03-02T03:54:37;99111.50;;;8.06;81.24
73501;BME280;61721;42.206;25.320;2024-03-02T03:57:05;99118.34;;;8.08;81.93
73501;BME280;61721;42.206;25.320;2024-03-02T03:59:32;99109.63;;;8.06;81.83
73501;BME280;61721;42.206;25.320;2024-03-02T04:02:00;99116.72;;;8.01;82.33
73501;BME280;61721;42.206;25.320;2024-03-02T04:04:29;99113.56;;;8.10;81.69
73501;BME280;61721;42.206;25.320;2024-03-02T04:06:57;99108.41;;;7.96;82.16
73501;BME280;61721;42.206;25.320;2024-03-02T04:09:24;99115.44;;;8.16;81.44
73501;BME280;61721;42.206;25.320;2024-03-02T04:11:52;99124.56;;;8.22;81.24
73501;BME280;61721;42.206;25.320;2024-03-02T04:14:19;99121.91;;;8.09;81.10
73501;BME280;61721;42.206;25.320;2024-03-02T04:16:47;99116.06;;;8.12;81.07
73501;BME280;61721;42.206;25.320;2024-03-02T04:19:14;99112.94;;;8.15;81.09
73501;BME280;61721;42.206;25.320;2024-03-02T04:21:43;99109.75;;;8.31;80.70
73501;BME280;61721;42.206;25.320;2024-03-02T04:24:10;99112.88;;;8.28;81.20
73501;BME280;61721;42.206;25.320;2024-03-02T04:26:37;99116.88;;;8.19;81.38
73501;BME280;61721;42.206;25.320;2024-03-02T04:29:05;99113.38;;;7.99;81.98
73501;BME280;61721;42.206;25.320;2024-03-02T04:31:32;99115.06;;;8.00;82.00
73501;BME280;61721;42.206;25.320;2024-03-02T04:34:00;99109.22;;;8.03;82.01
73501;BME280;61721;42.206;25.320;2024-03-02T04:36:27;99112.09;;;8.08;81.99
73501;BME280;61721;42.206;25.320;2024-03-02T04:38:57;99102.66;;;8.30;81.32
73501;BME280;61721;42.206;25.320;2024-03-02T04:41:24;99102.09;;;8.08;81.61
73501;BME280;61721;42.206;25.320;2024-03-02T04:43:52;99108.81;;;8.06;81.96
73501;BME280;61721;42.206;25.320;2024-03-02T04:46:21;99125.09;;;7.93;82.85
73501;BME280;61721;42.206;25.320;2024-03-02T04:48:50;99131.34;;;7.87;83.22
73501;BME280;61721;42.206;25.320;2024-03-02T04:51:21;99118.84;;;7.86;82.90
73501;BME280;61721;42.206;25.320;2024-03-02T04:53:48;99123.63;;;7.90;83.03
73501;BME280;61721;42.206;25.320;2024-03-02T04:56:17;99133.81;;;8.01;83.09
73501;BME280;61721;42.206;25.320;2024-03-02T04:59:06;99137.56;;;8.07;82.61
73501;BME280;61721;42.206;25.320;2024-03-02T05:01:33;99131.09;;;8.01;83.21
73501;BME280;61721;42.206;25.320;2024-03-02T05:04:01;99146.94;;;8.04;82.95
73501;BME280;61721;42.206;25.320;2024-03-02T05:06:28;99149.13;;;8.40;82.08
73501;BME280;61721;42.206;25.320;2024-03-02T05:08:55;99141.66;;;8.23;82.69
73501;BME280;61721;42.206;25.320;2024-03-02T05:11:25;99149.13;;;8.40;81.21
73501;BME280;61721;42.206;25.320;2024-03-02T05:14:09;99151.25;;;8.18;82.12
73501;BME280;61721;42.206;25.320;2024-03-02T05:16:37;99160.03;;;8.14;82.59
73501;BME280;61721;42.206;25.320;2024-03-02T05:19:06;99148.72;;;8.30;81.95
73501;BME280;61721;42.206;25.320;2024-03-02T05:21:33;99146.66;;;8.19;81.59
73501;BME280;61721;42.206;25.320;2024-03-02T05:24:01;99143.78;;;8.14;82.15
73501;BME280;61721;42.206;25.320;2024-03-02T05:26:30;99138.72;;;8.37;81.78
73501;BME280;61721;42.206;25.320;2024-03-02T05:28:57;99140.41;;;8.25;81.94
73501;BME280;61721;42.206;25.320;2024-03-02T05:31:25;99144.38;;;8.36;81.46
73501;BME280;61721;42.206;25.320;2024-03-02T05:33:52;99142.03;;;8.39;80.62
73501;BME280;61721;42.206;25.320;2024-03-02T05:36:19;99130.63;;;8.69;79.85
73501;BME280;61721;42.206;25.320;2024-03-02T05:38:47;99126.94;;;8.63;79.58
73501;BME280;61721;42.206;25.320;2024-03-02T05:41:15;99121.72;;;8.62;79.46
73501;BME280;61721;42.206;25.320;2024-03-02T05:43:44;99126.94;;;8.56;79.90
73501;BME280;61721;42.206;25.320;2024-03-02T05:46:11;99139.44;;;8.57;79.90
73501;BME280;61721;42.206;25.320;2024-03-02T05:48:39;99149.50;;;8.50;80.02
73501;BME280;61721;42.206;25.320;2024-03-02T05:51:06;99137.00;;;8.49;79.69
73501;BME280;61721;42.206;25.320;2024-03-02T05:53:33;99134.03;;;8.57;79.51
73501;BME280;61721;42.206;25.320;2024-03-02T05:56:03;99150.78;;;8.41;80.32
73501;BME280;61721;42.206;25.320;2024-03-02T05:58:31;99130.09;;;8.53;80.24
73501;BME280;61721;42.206;25.320;2024-03-02T06:01:13;99135.31;;;8.55;79.75
73501;BME280;61721;42.206;25.320;2024-03-02T06:03:41;99130.56;;;8.82;80.01
73501;BME280;61721;42.206;25.320;2024-03-02T06:06:08;99129.59;;;8.70;79.02
73501;BME280;61721;42.206;25.320;2024-03-02T06:08:35;99124.81;;;8.65;79.09
73501;BME280;61721;42.206;25.320;2024-03-02T06:11:03;99132.81;;;8.53;79.21
73501;BME280;61721;42.206;25.320;2024-03-02T06:13:30;99155.84;;;8.31;80.08
73501;BME280;61721;42.206;25.320;2024-03-02T06:15:58;99162.94;;;8.19;81.08
73501;BME280;61721;42.206;25.320;2024-03-02T06:18:27;99164.63;;;8.13;81.33
73501;BME280;61721;42.206;25.320;2024-03-02T06:20:54;99154.13;;;8.37;80.90
73501;BME280;61721;42.206;25.320;2024-03-02T06:23:22;99148.06;;;8.48;80.31
73501;BME280;61721;42.206;25.320;2024-03-02T06:25:50;99160.84;;;8.34;80.50
73501;BME280;61721;42.206;25.320;2024-03-02T06:28:18;99192.72;;;8.19;81.04
73501;BME280;61721;42.206;25.320;2024-03-02T06:30:45;99190.44;;;8.36;81.02
73501;BME280;61721;42.206;25.320;2024-03-02T06:33:12;99182.94;;;8.31;81.48
73501;BME280;61721;42.206;25.320;2024-03-02T06:35:41;99179.97;;;8.46;79.83
73501;BME280;61721;42.206;25.320;2024-03-02T06:38:08;99169.13;;;8.46;80.56
73501;BME280;61721;42.206;25.320;2024-03-02T06:40:36;99182.47;;;8.47;79.88
73501;BME280;61721;42.206;25.320;2024-03-02T06:43:05;99183.09;;;8.49;79.78
73501;BME280;61721;42.206;25.320;2024-03-02T06:45:33;99177.03;;;8.54;80.20
73501;BME280;61721;42.206;25.320;2024-03-02T06:48:00;99169.03;;;8.72;78.94
73501;BME280;61721;42.206;25.320;2024-03-02T06:50:27;99155.59;;;8.39;80.48
73501;BME280;61721;42.206;25.320;2024-03-02T06:52:57;99162.81;;;8.59;79.70
73501;BME280;61721;42.206;25.320;2024-03-02T06:55:24;99164.16;;;8.43;80.09
73501;BME280;61721;42.206;25.320;2024-03-02T06:57:52;99154.97;;;8.44;80.54
73501;BME280;61721;42.206;25.320;2024-03-02T07:00:19;99172.44;;;8.54;80.30
73501;BME280;61721;42.206;25.320;2024-03-02T07:02:47;99157.69;;;8.82;78.57
73501;BME280;61721;42.206;25.320;2024-03-02T07:05:14;99167.47;;;8.45;79.45
73501;BME280;61721;42.206;25.320;2024-03-02T07:07:42;99169.56;;;8.36;80.49
73501;BME280;61721;42.206;25.320;2024-03-02T07:10:11;99170.41;;;8.43;80.98
73501;BME280;61721;42.206;25.320;2024-03-02T07:12:42;99172.66;;;8.46;80.06
73501;BME280;61721;42.206;25.320;2024-03-02T07:15:10;99160.78;;;8.47;80.44
73501;BME280;61721;42.206;25.320;2024-03-02T07:17:47;99170.53;;;8.62;80.04
73501;BME280;61721;42.206;25.320;2024-03-02T07:20:14;99166.09;;;8.67;80.14
73501;BME280;61721;42.206;25.320;2024-03-02T07:22:42;99167.41;;;8.65;79.60
73501;BME280;61721;42.206;25.320;2024-03-02T07:25:11;99171.75;;;8.66;80.13
73501;BME280;61721;42.206;25.320;2024-03-02T07:27:38;99184.09;;;8.62;80.00
73501;BME280;61721;42.206;25.320;2024-03-02T07:30:06;99185.28;;;8.72;80.25
73501;BME280;61721;42.206;25.320;2024-03-02T07:32:34;99188.63;;;8.68;79.77
73501;BME280;61721;42.206;25.320;2024-03-02T07:35:01;99179.03;;;8.72;80.07
73501;BME280;61721;42.206;25.320;2024-03-02T07:37:29;99169.28;;;9.02;78.89
73501;BME280;61721;42.206;25.320;2024-03-02T07:39:57;99183.31;;;8.86;79.24
73501;BME280;61721;42.206;25.320;2024-03-02T07:42:26;99188.59;;;8.81;79.08
73501;BME280;61721;42.206;25.320;2024-03-02T07:44:53;99184.31;;;8.98;78.93
73501;BME280;61721;42.206;25.320;2024-03-02T07:47:21;99184.16;;;8.93;78.66
73501;BME280;61721;42.206;25.320;2024-03-02T07:49:48;99174.03;;;8.69;79.65
73501;BME280;61721;42.206;25.320;2024-03-02T07:52:15;99180.66;;;8.79;79.40
73501;BME280;61721;42.206;25.320;2024-03-02T07:54:43;99177.31;;;8.84;78.90
73501;BME280;61721;42.206;25.320;2024-03-02T07:57:10;99170.59;;;8.93;79.29
73501;BME280;61721;42.206;25.320;2024-03-02T07:59:39;99168.47;;;8.95;78.88
73501;BME280;61721;42.206;25.320;2024-03-02T08:02:07;99167.69;;;9.19;78.24
73501;BME280;61721;42.206;25.320;2024-03-02T08:04:34;99173.28;;;9.24;77.70
73501;BME280;61721;42.206;25.320;2024-03-02T08:07:03;99144.09;;;9.20;77.84
73501;BME280;61721;42.206;25.320;2024-03-02T08:09:31;99171.25;;;9.20;77.15
73501;BME280;61721;42.206;25.320;2024-03-02T08:11:58;99176.78;;;9.00;78.38
73501;BME280;61721;42.206;25.320;2024-03-02T08:14:25;99195.66;;;9.20;78.00
73501;BME280;61721;42.206;25.320;2024-03-02T08:16:54;99193.25;;;9.37;77.39
73501;BME280;61721;42.206;25.320;2024-03-02T08:19:23;99200.06;;;9.14;77.81
73501;BME280;61721;42.206;25.320;2024-03-02T08:21:50;99194.63;;;9.14;77.60
73501;BME280;61721;42.206;25.320;2024-03-02T08:24:19;99192.00;;;9.32;77.44
73501;BME280;61721;42.206;25.320;2024-03-02T08:26:48;99199.09;;;9.34;76.82
73501;BME280;61721;42.206;25.320;2024-03-02T08:29:16;99189.00;;;9.47;76.64
73501;BME280;61721;42.206;25.320;2024-03-02T08:31:43;99169.91;;;9.54;76.43
73501;BME280;61721;42.206;25.320;2024-03-02T08:34:12;99165.09;;;9.56;76.19
73501;BME280;61721;42.206;25.320;2024-03-02T08:36:39;99165.69;;;9.83;75.72
73501;BME280;61721;42.206;25.320;2024-03-02T08:39:08;99165.78;;;9.94;75.08
73501;BME280;61721;42.206;25.320;2024-03-02T08:41:41;99165.50;;;10.02;74.78
73501;BME280;61721;42.206;25.320;2024-03-02T08:44:09;99172.28;;;9.93;74.16
73501;BME280;61721;42.206;25.320;2024-03-02T08:46:37;99177.75;;;10.12;73.70
73501;BME280;61721;42.206;25.320;2024-03-02T08:49:04;99173.69;;;10.21;74.03
73501;BME280;61721;42.206;25.320;2024-03-02T08:51:33;99165.34;;;9.97;74.02
73501;BME280;61721;42.206;25.320;2024-03-02T08:54:01;99165.91;;;10.06;75.03
73501;BME280;61721;42.206;25.320;2024-03-02T08:56:30;99161.81;;;10.15;74.21
73501;BME280;61721;42.206;25.320;2024-03-02T08:58:57;99174.47;;;10.28;73.40
73501;BME280;61721;42.206;25.320;2024-03-02T09:01:25;99169.59;;;10.12;73.60
73501;BME280;61721;42.206;25.320;2024-03-02T09:03:52;99179.38;;;9.94;75.10
73501;BME280;61721;42.206;25.320;2024-03-02T09:06:20;99187.13;;;10.16;73.52
73501;BME280;61721;42.206;25.320;2024-03-02T09:08:48;99189.78;;;10.40;73.04
73501;BME280;61721;42.206;25.320;2024-03-02T09:11:17;99190.63;;;10.41;72.96
73501;BME280;61721;42.206;25.320;2024-03-02T09:13:45;99193.00;;;10.13;73.60
73501;BME280;61721;42.206;25.320;2024-03-02T09:16:12;99204.38;;;10.03;74.21
73501;BME280;61721;42.206;25.320;2024-03-02T09:18:39;99202.13;;;10.25;73.60
73501;BME280;61721;42.206;25.320;2024-03-02T09:21:07;99207.09;;;10.28;73.53
73501;BME280;61721;42.206;25.320;2024-03-02T09:23:35;99207.13;;;9.78;75.10
73501;BME280;61721;42.206;25.320;2024-03-02T09:26:04;99197.81;;;10.11;74.62
73501;BME280;61721;42.206;25.320;2024-03-02T09:28:31;99191.75;;;10.33;73.52
73501;BME280;61721;42.206;25.320;2024-03-02T09:31:00;99179.00;;;10.34;72.98
73501;BME280;61721;42.206;25.320;2024-03-02T09:33:28;99185.09;;;10.48;73.07
73501;BME280;61721;42.206;25.320;2024-03-02T09:35:55;99191.91;;;10.38;73.17
73501;BME280;61721;42.206;25.320;2024-03-02T09:38:22;99201.97;;;10.38;73.06
73501;BME280;61721;42.206;25.320;2024-03-02T09:40:50;99191.47;;;10.41;73.18
73501;BME280;61721;42.206;25.320;2024-03-02T09:43:19;99196.53;;;10.38;73.40
73501;BME280;61721;42.206;25.320;2024-03-02T09:45:46;99199.38;;;10.61;72.37
73501;BME280;61721;42.206;25.320;2024-03-02T09:48:14;99194.78;;;10.44;72.76
73501;BME280;61721;42.206;25.320;2024-03-02T09:50:44;99191.13;;;10.68;71.80
73501;BME280;61721;42.206;25.320;2024-03-02T09:53:12;99192.44;;;10.65;72.12
73501;BME280;61721;42.206;25.320;2024-03-02T09:55:41;99186.63;;;10.62;71.65
73501;BME280;61721;42.206;25.320;2024-03-02T09:58:09;99187.75;;;10.72;71.58
73501;BME280;61721;42.206;25.320;2024-03-02T10:00:38;99192.47;;;10.77;71.98
73501;BME280;61721;42.206;25.320;2024-03-02T10:03:11;99183.97;;;10.73;71.79
73501;BME280;61721;42.206;25.320;2024-03-02T10:05:39;99181.94;;;10.51;72.08
73501;BME280;61721;42.206;25.320;2024-03-02T10:08:06;99180.59;;;10.90;71.45
73501;BME280;61721;42.206;25.320;2024-03-02T10:10:37;99177.97;;;10.83;71.42
73501;BME280;61721;42.206;25.320;2024-03-02T10:13:08;99178.78;;;10.54;72.42
73501;BME280;61721;42.206;25.320;2024-03-02T10:15:38;99182.31;;;10.72;71.68
73501;BME280;61721;42.206;25.320;2024-03-02T10:18:09;99185.03;;;10.54;72.37
73501;BME280;61721;42.206;25.320;2024-03-02T10:20:38;99186.22;;;10.58;72.21
73501;BME280;61721;42.206;25.320;2024-03-02T10:23:12;99198.78;;;10.59;72.50
73501;BME280;61721;42.206;25.320;2024-03-02T10:25:40;99186.91;;;10.72;71.78
73501;BME280;61721;42.206;25.320;2024-03-02T10:28:08;99186.91;;;10.72;71.76
73501;BME280;61721;42.206;25.320;2024-03-02T10:30:35;99184.88;;;10.67;71.38
73501;BME280;61721;42.206;25.320;2024-03-02T10:33:06;99190.31;;;10.67;71.91
73501;BME280;61721;42.206;25.320;2024-03-02T10:35:33;99187.13;;;10.70;71.96
73501;BME280;61721;42.206;25.320;2024-03-02T10:38:04;99177.31;;;10.69;71.70
73501;BME280;61721;42.206;25.320;2024-03-02T10:40:32;99169.88;;;10.95;70.79
73501;BME280;61721;42.206;25.320;2024-03-02T10:43:01;99167.00;;;10.90;71.29
73501;BME280;61721;42.206;25.320;2024-03-02T10:45:31;99165.84;;;10.97;70.96
73501;BME280;61721;42.206;25.320;2024-03-02T10:48:00;99171.84;;;10.88;71.20
73501;BME280;61721;42.206;25.320;2024-03-02T10:50:30;99154.09;;;10.85;71.26
73501;BME280;61721;42.206;25.320;2024-03-02T10:52:57;99140.66;;;11.02;71.53
73501;BME280;61721;42.206;25.320;2024-03-02T10:55:25;99133.72;;;11.18;71.05
73501;BME280;61721;42.206;25.320;2024-03-02T10:57:53;99140.81;;;11.19;71.29
73501;BME280;61721;42.206;25.320;2024-03-02T11:00:23;99141.31;;;11.27;70.30
73501;BME280;61721;42.206;25.320;2024-03-02T11:02:57;99141.81;;;11.24;70.26
73501;BME280;61721;42.206;25.320;2024-03-02T11:05:28;99144.66;;;10.99;70.79
73501;BME280;61721;42.206;25.320;2024-03-02T11:08:00;99147.50;;;10.93;71.28
73501;BME280;61721;42.206;25.320;2024-03-02T11:10:34;99148.97;;;10.59;72.10
73501;BME280;61721;42.206;25.320;2024-03-02T11:13:05;99140.78;;;10.77;71.81
73501;BME280;61721;42.206;25.320;2024-03-02T11:15:35;99136.94;;;10.85;71.90
73501;BME280;61721;42.206;25.320;2024-03-02T11:18:04;99133.22;;;11.09;71.50
73501;BME280;61721;42.206;25.320;2024-03-02T11:20:36;99109.94;;;11.36;70.14
73501;BME280;61721;42.206;25.320;2024-03-02T11:23:07;99115.03;;;11.44;70.25
73501;BME280;61721;42.206;25.320;2024-03-02T11:25:36;99119.44;;;11.45;68.95
73501;BME280;61721;42.206;25.320;2024-03-02T11:28:06;99121.47;;;10.97;70.36
73501;BME280;61721;42.206;25.320;2024-03-02T11:30:57;99125.84;;;10.98;71.45
73501;BME280;61721;42.206;25.320;2024-03-02T11:33:26;99124.72;;;10.87;71.38
73501;BME280;61721;42.206;25.320;2024-03-02T11:35:56;99118.38;;;10.63;72.37
73501;BME280;61721;42.206;25.320;2024-03-02T11:38:30;99110.34;;;10.98;71.09
73501;BME280;61721;42.206;25.320;2024-03-02T11:40:59;99115.34;;;10.71;71.78
73501;BME280;61721;42.206;25.320;2024-03-02T11:43:28;99114.88;;;10.74;71.91
73501;BME280;61721;42.206;25.320;2024-03-02T11:45:59;99107.31;;;11.18;71.31
73501;BME280;61721;42.206;25.320;2024-03-02T11:48:30;99107.19;;;10.71;71.11
73501;BME280;61721;42.206;25.320;2024-03-02T11:50:58;99116.50;;;10.94;71.25
73501;BME280;61721;42.206;25.320;2024-03-02T11:53:27;99114.56;;;10.83;71.09
73501;BME280;61721;42.206;25.320;2024-03-02T11:55:58;99108.00;;;11.02;70.80
73501;BME280;61721;42.206;25.320;2024-03-02T11:58:27;99111.53;;;11.02;70.87
73501;BME280;61721;42.206;25.320;2024-03-02T12:00:55;99104.06;;;10.98;70.68
73501;BME280;61721;42.206;25.320;2024-03-02T12:03:24;99107.78;;;10.73;71.27
73501;BME280;61721;42.206;25.320;2024-03-02T12:05:54;99106.44;;;10.94;71.54
73501;BME280;61721;42.206;25.320;2024-03-02T12:08:21;99105.56;;;10.82;71.17
73501;BME280;61721;42.206;25.320;2024-03-02T12:10:58;99096.25;;;10.60;71.90
73501;BME280;61721;42.206;25.320;2024-03-02T12:13:26;99101.50;;;11.03;71.09
73501;BME280;61721;42.206;25.320;2024-03-02T12:15:54;99095.28;;;10.84;71.03
73501;BME280;61721;42.206;25.320;2024-03-02T12:18:23;99107.09;;;11.20;70.33
73501;BME280;61721;42.206;25.320;2024-03-02T12:20:51;99101.06;;;10.88;71.17
73501;BME280;61721;42.206;25.320;2024-03-02T12:23:22;99102.88;;;10.94;70.78
73501;BME280;61721;42.206;25.320;2024-03-02T12:25:50;99097.97;;;11.14;70.04
73501;BME280;61721;42.206;25.320;2024-03-02T12:28:20;99109.63;;;10.91;70.80
73501;BME280;61721;42.206;25.320;2024-03-02T12:30:47;99099.81;;;11.02;70.16
73501;BME280;61721;42.206;25.320;2024-03-02T12:33:16;99094.72;;;11.05;69.64
73501;BME280;61721;42.206;25.320;2024-03-02T12:35:44;99091.50;;;10.97;70.57
73501;BME280;61721;42.206;25.320;2024-03-02T12:38:12;99090.88;;;11.13;70.01
73501;BME280;61721;42.206;25.320;2024-03-02T12:40:39;99087.94;;;11.38;69.16
73501;BME280;61721;42.206;25.320;2024-03-02T12:43:07;99095.97;;;10.79;71.29
73501;BME280;61721;42.206;25.320;2024-03-02T12:45:36;99088.59;;;10.68;71.95
73501;BME280;61721;42.206;25.320;2024-03-02T12:48:05;99096.91;;;10.73;72.23
73501;BME280;61721;42.206;25.320;2024-03-02T12:50:33;99096.94;;;10.55;72.67
73501;BME280;61721;42.206;25.320;2024-03-02T12:53:01;99099.66;;;10.55;72.90
73501;BME280;61721;42.206;25.320;2024-03-02T12:55:28;99111.13;;;10.75;72.17
73501;BME280;61721;42.206;25.320;2024-03-02T12:57:56;99092.63;;;10.77;72.13
73501;BME280;61721;42.206;25.320;2024-03-02T13:00:24;99102.50;;;10.60;73.46
73501;BME280;61721;42.206;25.320;2024-03-02T13:02:53;99099.00;;;10.71;73.46
73501;BME280;61721;42.206;25.320;2024-03-02T13:05:30;99101.03;;;10.46;73.93